Time;durP1;ratioP1;P1;durP2;ratioP2;P2;SDS_P1;SDS_P2;PMS_P1;PMS_P2;Temp;Humidity;BMP_temperature;BMP_pressure;BME280_temperature;BME280_humidity;BME280_pressure;Samples;Min_cycle;Max_cycle;Signal;HPM_P1;HPM_P2
2024/01/20 00:01:47;;;;;;;3.85;2.80;;;7.20;68.90;;;;;;5078275;28;20035;-66
2024/01/20 00:04:13;;;;;;;3.10;2.80;;;7.20;68.90;;;;;;5096128;28;20036;-66
2024/01/20 00:06:39;;;;;;;2.85;2.65;;;7.20;68.90;;;;;;5096136;28;20035;-65
2024/01/20 00:09:05;;;;;;;3.33;2.70;;;7.20;68.90;;;;;;5096351;28;20031;-67
2024/01/20 00:11:30;;;;;;;3.10;2.80;;;7.20;68.90;;;;;;5096564;28;20035;-66
2024/01/20 00:13:56;;;;;;;3.50;2.70;;;7.20;68.90;;;;;;5076795;28;20031;-66
2024/01/20 00:16:22;;;;;;;3.20;2.63;;;7.20;68.90;;;;;;5095920;28;20048;-68
2024/01/20 00:18:47;;;;;;;3.45;2.88;;;7.20;68.90;;;;;;5095470;28;20466;-67
2024/01/20 00:21:14;;;;;;;3.00;2.65;;;7.20;68.90;;;;;;5077137;28;20044;-68
2024/01/20 00:23:39;;;;;;;3.03;2.70;;;7.20;68.80;;;;;;5095925;28;20024;-66
2024/01/20 00:26:05;;;;;;;2.97;2.67;;;7.20;68.80;;;;;;5095802;28;20054;-67
2024/01/20 00:28:30;;;;;;;3.15;2.75;;;7.20;68.90;;;;;;5095474;28;20034;-66
2024/01/20 00:30:56;;;;;;;3.38;2.88;;;7.20;68.90;;;;;;5077246;28;20466;-65
2024/01/20 00:33:22;;;;;;;3.17;2.80;;;7.20;68.80;;;;;;5094982;28;20028;-66
2024/01/20 00:35:47;;;;;;;4.32;3.00;;;7.20;68.80;;;;;;5076986;28;20039;-67
2024/01/20 00:38:14;;;;;;;3.55;3.10;;;7.20;68.80;;;;;;5094262;28;20467;-66
2024/01/20 00:40:40;;;;;;;3.00;2.70;;;7.10;68.70;;;;;;5077317;28;20130;-66
2024/01/20 00:43:05;;;;;;;3.08;2.60;;;7.10;68.80;;;;;;5095496;28;20028;-65
2024/01/20 00:45:31;;;;;;;2.90;2.60;;;7.20;68.80;;;;;;5094920;28;20158;-66
2024/01/20 00:47:57;;;;;;;3.95;2.90;;;7.20;68.80;;;;;;5076457;28;20028;-66
2024/01/20 00:50:23;;;;;;;3.13;2.80;;;7.20;68.80;;;;;;5059730;28;20024;-67
2024/01/20 00:52:49;;;;;;;2.80;2.58;;;7.10;68.80;;;;;;5076654;28;20028;-67
2024/01/20 00:55:15;;;;;;;3.08;2.78;;;7.10;68.70;;;;;;5076773;28;20024;-65
2024/01/20 00:57:40;;;;;;;2.80;2.60;;;7.10;68.80;;;;;;5095600;28;20039;-66
2024/01/20 01:00:09;;;;;;;2.65;2.45;;;7.10;68.70;;;;;;5094993;28;20056;-67
2024/01/20 01:02:36;;;;;;;3.10;2.80;;;7.10;68.80;;;;;;5076762;28;20040;-67
2024/01/20 01:05:01;;;;;;;2.75;2.55;;;7.10;68.80;;;;;;5076410;28;20048;-66
2024/01/20 01:07:27;;;;;;;3.08;2.78;;;7.10;68.70;;;;;;5094754;28;20035;-66
2024/01/20 01:09:53;;;;;;;2.80;2.60;;;7.10;68.70;;;;;;5076283;28;20037;-66
2024/01/20 01:12:18;;;;;;;2.70;2.50;;;7.10;68.70;;;;;;5094713;28;20409;-66
2024/01/20 01:14:44;;;;;;;2.80;2.58;;;7.10;68.70;;;;;;5094441;28;20024;-67
2024/01/20 01:17:10;;;;;;;2.70;2.50;;;7.10;68.70;;;;;;5094002;28;20024;-67
2024/01/20 01:19:36;;;;;;;3.03;2.47;;;7.10;68.60;;;;;;5090488;28;20081;-67
2024/01/20 01:22:02;;;;;;;3.10;2.67;;;7.10;68.60;;;;;;5077332;28;20153;-66
2024/01/20 01:24:28;;;;;;;2.92;2.63;;;7.10;68.60;;;;;;5076459;28;20401;-66
2024/01/20 01:26:53;;;;;;;3.20;2.90;;;7.10;68.60;;;;;;5076397;28;20049;-66
2024/01/20 01:29:19;;;;;;;3.05;2.70;;;7.10;68.70;;;;;;5094285;28;20527;-67
2024/01/20 01:31:45;;;;;;;3.00;2.70;;;7.10;68.60;;;;;;5094405;28;20028;-67
2024/01/20 01:34:10;;;;;;;2.70;2.47;;;7.10;68.60;;;;;;5076327;28;20097;-67
2024/01/20 01:36:36;;;;;;;2.67;2.40;;;7.10;68.60;;;;;;5094681;28;20467;-66
2024/01/20 01:39:02;;;;;;;2.92;2.63;;;7.10;68.50;;;;;;5076237;28;20028;-66
2024/01/20 01:41:28;;;;;;;2.58;2.38;;;7.10;68.60;;;;;;5076326;28;20032;-65
2024/01/20 01:43:53;;;;;;;2.90;2.60;;;7.00;68.60;;;;;;5094560;28;20466;-65
2024/01/20 01:46:19;;;;;;;2.75;2.55;;;7.10;68.50;;;;;;5094028;28;20023;-66
2024/01/20 01:48:45;;;;;;;2.88;2.50;;;7.00;68.50;;;;;;5075703;28;20032;-66
2024/01/20 01:51:12;;;;;;;3.70;2.83;;;7.00;68.50;;;;;;5076406;28;20035;-66
2024/01/20 01:53:39;;;;;;;3.13;2.83;;;7.00;68.50;;;;;;5094157;28;20085;-67
2024/01/20 01:56:06;;;;;;;3.55;2.90;;;7.00;68.50;;;;;;5090940;28;20017;-65
2024/01/20 01:58:32;;;;;;;3.15;2.70;;;7.00;68.50;;;;;;5074215;28;20048;-66
2024/01/20 02:01:00;;;;;;;2.85;2.50;;;7.00;68.50;;;;;;5075429;28;20097;-65
2024/01/20 02:03:25;;;;;;;3.28;2.60;;;7.00;68.40;;;;;;5075748;28;20028;-66
2024/01/20 02:05:51;;;;;;;3.05;2.75;;;7.00;68.50;;;;;;5073786;28;20091;-66
2024/01/20 02:08:18;;;;;;;3.28;2.65;;;7.00;68.50;;;;;;5079896;28;20023;-66
2024/01/20 02:10:46;;;;;;;4.05;3.13;;;7.00;68.50;;;;;;5075546;28;20025;-65
2024/01/20 02:13:13;;;;;;;3.17;2.80;;;7.00;68.40;;;;;;5075663;28;20032;-67
2024/01/20 02:15:39;;;;;;;2.75;2.53;;;7.00;68.50;;;;;;5075407;28;20474;-67
2024/01/20 02:18:05;;;;;;;4.95;2.90;;;7.00;68.40;;;;;;5075530;28;20031;-67
2024/01/20 02:20:31;;;;;;;3.35;2.75;;;7.00;68.40;;;;;;5072512;28;20040;-65
2024/01/20 02:22:56;;;;;;;3.60;3.03;;;7.00;68.40;;;;;;5075512;28;20032;-67
2024/01/20 02:25:22;;;;;;;3.00;2.70;;;7.00;68.40;;;;;;5075425;28;20114;-66
2024/01/20 02:27:48;;;;;;;2.72;2.45;;;7.00;68.40;;;;;;5075177;28;20028;-65
2024/01/20 02:30:14;;;;;;;3.03;2.72;;;7.00;68.40;;;;;;5075025;28;20032;-66
2024/01/20 02:32:40;;;;;;;3.00;2.58;;;7.00;68.40;;;;;;5072448;28;20024;-67
2024/01/20 02:35:06;;;;;;;3.20;2.90;;;7.00;68.30;;;;;;5075391;28;20017;-66
2024/01/20 02:37:31;;;;;;;3.63;3.15;;;7.00;68.30;;;;;;5075338;28;20024;-66
2024/01/20 02:39:57;;;;;;;3.35;2.90;;;7.00;68.30;;;;;;5074779;28;20037;-66
2024/01/20 02:42:23;;;;;;;3.05;2.75;;;7.00;68.30;;;;;;5092314;28;20093;-67
2024/01/20 02:44:50;;;;;;;3.65;3.05;;;7.00;68.30;;;;;;5074886;28;20031;-66
2024/01/20 02:47:16;;;;;;;2.80;2.60;;;7.00;68.30;;;;;;5093464;28;20028;-66
2024/01/20 02:49:41;;;;;;;3.83;2.85;;;7.00;68.30;;;;;;5074856;28;20028;-67
2024/01/20 02:52:07;;;;;;;3.95;3.28;;;7.00;68.30;;;;;;5074370;28;20039;-67
2024/01/20 02:54:33;;;;;;;3.15;2.70;;;7.00;68.30;;;;;;5074773;28;20537;-65
2024/01/20 02:56:58;;;;;;;3.47;2.90;;;7.00;68.20;;;;;;5093407;28;20044;-67
2024/01/20 02:59:24;;;;;;;3.65;3.20;;;7.00;68.30;;;;;;5092005;28;20048;-66
2024/01/20 03:01:50;;;;;;;3.65;3.00;;;7.00;68.30;;;;;;5082460;28;20119;-66
2024/01/20 03:04:16;;;;;;;3.97;3.00;;;7.00;68.30;;;;;;5079314;28;20401;-65
2024/01/20 03:06:41;;;;;;;3.10;2.80;;;7.00;68.30;;;;;;5097389;28;20031;-66
2024/01/20 03:09:08;;;;;;;3.50;3.05;;;7.00;68.30;;;;;;5096860;28;20030;-66
2024/01/20 03:11:35;;;;;;;4.18;3.13;;;7.00;68.30;;;;;;5078546;28;20482;-67
2024/01/20 03:14:01;;;;;;;4.15;3.30;;;7.00;68.20;;;;;;5078995;28;20461;-67
2024/01/20 03:16:27;;;;;;;3.90;3.30;;;7.00;68.30;;;;;;5078954;28;20032;-68
2024/01/20 03:18:52;;;;;;;3.47;3.13;;;7.00;68.20;;;;;;5096434;28;20028;-67
2024/01/20 03:21:18;;;;;;;3.33;2.78;;;7.00;68.20;;;;;;5077802;28;20040;-65
2024/01/20 03:23:44;;;;;;;3.20;2.90;;;6.90;68.20;;;;;;5078870;28;20484;-65
2024/01/20 03:26:10;;;;;;;3.67;3.10;;;6.90;68.10;;;;;;5096334;28;20488;-67
2024/01/20 03:28:40;;;;;;;4.50;3.38;;;6.90;68.10;;;;;;5077971;28;20370;-66
2024/01/20 03:31:06;;;;;;;3.63;3.10;;;7.00;68.20;;;;;;5078475;28;20028;-66
2024/01/20 03:33:32;;;;;;;3.88;3.10;;;7.00;68.20;;;;;;5078513;28;20462;-66
2024/01/20 03:35:57;;;;;;;3.55;2.90;;;6.90;68.60;;;;;;5078189;28;20367;-66
2024/01/20 03:38:23;;;;;;;3.78;3.33;;;6.90;68.00;;;;;;5077796;28;20032;-66
2024/01/20 03:40:49;;;;;;;3.42;3.00;;;6.90;68.10;;;;;;5076794;28;20116;-66
2024/01/20 03:43:15;;;;;;;5.18;3.60;;;6.90;68.10;;;;;;5077763;28;20397;-67
2024/01/20 03:45:42;;;;;;;3.85;3.42;;;6.90;68.10;;;;;;5090248;28;20024;-66
2024/01/20 03:48:08;;;;;;;3.97;3.25;;;6.90;68.10;;;;;;5078393;28;20020;-68
2024/01/20 03:50:34;;;;;;;4.60;3.20;;;6.90;68.10;;;;;;5078208;28;20028;-66
2024/01/20 03:53:00;;;;;;;4.20;3.50;;;6.90;68.00;;;;;;5096143;28;20066;-66
2024/01/20 03:55:26;;;;;;;4.28;3.60;;;6.90;68.00;;;;;;5077722;28;20398;-66
2024/01/20 03:57:52;;;;;;;4.80;3.38;;;6.90;68.00;;;;;;5095995;28;20103;-65
2024/01/20 04:00:17;;;;;;;3.55;3.10;;;6.90;68.00;;;;;;5096097;28;20055;-66
2024/01/20 04:02:43;;;;;;;3.50;3.17;;;6.90;68.00;;;;;;5077808;28;20485;-65
2024/01/20 04:05:09;;;;;;;3.85;3.42;;;6.90;68.00;;;;;;5095650;28;20027;-66
2024/01/20 04:07:36;;;;;;;4.18;3.60;;;6.90;68.00;;;;;;5077810;28;20115;-66
2024/01/20 04:10:03;;;;;;;3.90;3.40;;;6.90;68.00;;;;;;5077709;28;20040;-66
2024/01/20 04:12:28;;;;;;;5.30;3.67;;;6.90;68.00;;;;;;5076596;28;20035;-67
2024/01/20 04:14:55;;;;;;;4.00;3.40;;;6.90;68.00;;;;;;5096065;28;20081;-66
2024/01/20 04:17:21;;;;;;;3.40;3.03;;;6.90;68.00;;;;;;5077710;28;20556;-66
2024/01/20 04:19:47;;;;;;;4.25;3.33;;;6.90;68.00;;;;;;5096039;28;20105;-67
2024/01/20 04:22:13;;;;;;;4.88;3.70;;;6.90;68.00;;;;;;5077426;28;20070;-65
2024/01/20 04:24:38;;;;;;;3.78;3.00;;;6.90;67.90;;;;;;5095836;28;20032;-65
2024/01/20 04:27:04;;;;;;;4.70;3.58;;;6.90;68.00;;;;;;5077090;28;20604;-67
2024/01/20 04:29:30;;;;;;;4.43;3.20;;;6.90;68.00;;;;;;5094868;28;20028;-67
2024/01/20 04:31:55;;;;;;;3.80;3.40;;;6.90;68.00;;;;;;5077191;28;20028;-66
2024/01/20 04:34:21;;;;;;;3.50;3.03;;;6.90;68.00;;;;;;5095265;28;20107;-66
2024/01/20 04:36:47;;;;;;;4.22;3.30;;;6.80;67.90;;;;;;5095891;28;20031;-65
2024/01/20 04:39:12;;;;;;;4.28;3.40;;;6.80;67.90;;;;;;5076991;28;20485;-66
2024/01/20 04:41:38;;;;;;;3.85;3.35;;;6.90;67.90;;;;;;5077114;28;20040;-65
2024/01/20 04:44:04;;;;;;;4.60;3.50;;;6.90;67.90;;;;;;5077351;28;20035;-67
2024/01/20 04:46:30;;;;;;;4.05;3.40;;;6.80;67.90;;;;;;5077213;28;20457;-66
2024/01/20 04:48:55;;;;;;;3.63;3.22;;;6.90;67.90;;;;;;5077155;28;20078;-67
2024/01/20 04:51:21;;;;;;;3.83;3.08;;;6.80;67.90;;;;;;5077339;28;20466;-66
2024/01/20 04:53:47;;;;;;;4.68;3.58;;;6.80;67.90;;;;;;5076940;28;20034;-66
2024/01/20 04:56:12;;;;;;;4.22;3.50;;;6.90;67.90;;;;;;5094619;28;20031;-66
2024/01/20 04:58:38;;;;;;;3.38;3.08;;;6.80;67.80;;;;;;5094957;28;20044;-67
2024/01/20 05:01:04;;;;;;;3.83;3.40;;;6.80;67.80;;;;;;5094113;28;20394;-65
2024/01/20 05:03:30;;;;;;;4.57;3.50;;;6.80;67.80;;;;;;5076922;28;20386;-67
2024/01/20 05:05:56;;;;;;;4.35;3.70;;;6.80;67.80;;;;;;5076869;28;20032;-66
2024/01/20 05:08:22;;;;;;;3.88;3.40;;;6.80;67.80;;;;;;5079660;28;20029;-66
2024/01/20 05:10:47;;;;;;;5.63;3.80;;;6.80;67.70;;;;;;5094568;28;20028;-66
2024/01/20 05:13:13;;;;;;;3.88;3.45;;;6.80;67.80;;;;;;5094724;28;20481;-66
2024/01/20 05:15:39;;;;;;;4.63;3.47;;;6.80;67.70;;;;;;5076710;28;20024;-66
2024/01/20 05:18:05;;;;;;;3.40;3.10;;;6.80;67.70;;;;;;5094808;28;20043;-65
2024/01/20 05:20:30;;;;;;;3.92;3.53;;;6.80;67.70;;;;;;5076286;28;20034;-66
2024/01/20 05:22:56;;;;;;;3.78;3.35;;;6.80;67.70;;;;;;5076696;28;20036;-66
2024/01/20 05:25:22;;;;;;;3.97;3.40;;;6.80;67.70;;;;;;5093978;28;20024;-67
2024/01/20 05:27:47;;;;;;;3.60;3.05;;;6.80;67.70;;;;;;5075653;28;20036;-66
2024/01/20 05:30:14;;;;;;;4.22;3.40;;;6.80;67.70;;;;;;5094281;28;20102;-66
2024/01/20 05:32:41;;;;;;;4.03;3.15;;;6.80;67.60;;;;;;5076032;28;20027;-66
2024/01/20 05:35:07;;;;;;;4.70;3.55;;;6.80;67.70;;;;;;5075760;28;20111;-66
2024/01/20 05:37:32;;;;;;;4.35;3.42;;;6.80;67.60;;;;;;5076164;28;20123;-67
2024/01/20 05:39:58;;;;;;;4.85;3.70;;;6.80;67.60;;;;;;5075878;28;20047;-67
2024/01/20 05:42:24;;;;;;;4.07;3.42;;;6.80;67.60;;;;;;5076340;28;20031;-66
2024/01/20 05:44:49;;;;;;;3.97;3.35;;;6.80;67.60;;;;;;5094572;28;20024;-67
2024/01/20 05:47:15;;;;;;;4.93;3.92;;;6.80;67.60;;;;;;5075907;28;20080;-65
2024/01/20 05:49:41;;;;;;;3.83;3.30;;;6.80;67.60;;;;;;5094045;28;20032;-67
2024/01/20 05:52:06;;;;;;;3.90;3.20;;;6.80;67.60;;;;;;5075709;28;20031;-66
2024/01/20 05:54:32;;;;;;;3.20;2.90;;;6.80;67.60;;;;;;5075449;28;20454;-65
2024/01/20 05:56:58;;;;;;;3.85;3.20;;;6.80;67.60;;;;;;5075805;28;20157;-66
2024/01/20 05:59:23;;;;;;;3.83;3.33;;;6.80;67.50;;;;;;5093378;28;20127;-67
2024/01/20 06:01:52;;;;;;;4.20;3.40;;;6.80;67.50;;;;;;5093338;28;20044;-66
2024/01/20 06:04:19;;;;;;;5.00;3.80;;;6.80;67.50;;;;;;5075396;28;20044;-67
2024/01/20 06:06:48;;;;;;;3.90;3.47;;;6.80;67.50;;;;;;5075413;28;20039;-67
2024/01/20 06:09:15;;;;;;;3.42;3.10;;;6.80;67.50;;;;;;5093433;28;20112;-67
2024/01/20 06:11:41;;;;;;;3.65;3.10;;;6.80;67.40;;;;;;5093722;28;20539;-67
2024/01/20 06:14:07;;;;;;;4.60;3.20;;;6.80;67.40;;;;;;5075486;28;20032;-67
2024/01/20 06:16:36;;;;;;;4.07;3.38;;;6.80;67.40;;;;;;5093673;28;20028;-65
2024/01/20 06:19:01;;;;;;;4.20;3.67;;;6.80;67.40;;;;;;5075591;28;20031;-67
2024/01/20 06:21:27;;;;;;;4.47;3.25;;;6.80;67.40;;;;;;5092799;28;20116;-66
2024/01/20 06:23:53;;;;;;;4.65;3.20;;;6.80;67.40;;;;;;5088118;28;20078;-68
2024/01/20 06:26:19;;;;;;;4.03;3.20;;;6.80;67.40;;;;;;5073736;28;20085;-66
2024/01/20 06:28:44;;;;;;;5.03;3.60;;;6.80;67.40;;;;;;5085711;28;20024;-67
2024/01/20 06:31:21;;;;;;;4.75;3.50;;;6.80;67.30;;;;;;5075763;28;20032;-67
2024/01/20 06:33:47;;;;;;;4.65;3.67;;;6.90;67.40;;;;;;5075645;28;20463;-67
2024/01/20 06:36:13;;;;;;;4.32;3.42;;;6.80;67.30;;;;;;5075139;28;20390;-68
2024/01/20 06:38:39;;;;;;;5.35;3.75;;;6.90;67.30;;;;;;5075420;28;20028;-68
2024/01/20 06:41:04;;;;;;;4.82;3.40;;;6.90;67.30;;;;;;5075512;28;20496;-68
2024/01/20 06:43:30;;;;;;;4.43;3.28;;;6.90;67.30;;;;;;5093721;28;20512;-69
2024/01/20 06:45:56;;;;;;;3.70;3.35;;;6.90;67.30;;;;;;5075748;28;20024;-68
2024/01/20 06:48:21;;;;;;;4.55;3.40;;;6.90;67.20;;;;;;5075709;28;20046;-66
2024/01/20 06:50:47;;;;;;;4.53;3.42;;;6.90;67.20;;;;;;5093653;28;20192;-67
2024/01/20 06:53:13;;;;;;;4.60;3.75;;;6.90;67.20;;;;;;5093286;28;20032;-66
2024/01/20 06:55:39;;;;;;;4.35;3.70;;;6.90;67.20;;;;;;5093809;28;20458;-67
2024/01/20 06:58:04;;;;;;;5.35;3.78;;;7.00;67.20;;;;;;5093069;28;20085;-70
2024/01/20 07:00:31;;;;;;;5.10;3.80;;;7.00;67.10;;;;;;5093219;28;20029;-68
2024/01/20 07:02:58;;;;;;;4.40;3.80;;;7.00;67.10;;;;;;5074662;28;20034;-67
2024/01/20 07:05:24;;;;;;;4.40;3.35;;;7.00;67.10;;;;;;5075319;28;20482;-68
2024/01/20 07:07:49;;;;;;;4.38;3.28;;;7.00;67.00;;;;;;5075322;28;20061;-68
2024/01/20 07:10:15;;;;;;;4.03;3.60;;;7.00;67.00;;;;;;5075356;28;20020;-68
2024/01/20 07:12:41;;;;;;;4.20;3.75;;;7.10;67.00;;;;;;5092220;28;20481;-68
2024/01/20 07:15:07;;;;;;;4.13;3.60;;;7.10;67.00;;;;;;5093502;28;20029;-68
2024/01/20 07:17:34;;;;;;;4.43;3.70;;;7.10;66.90;;;;;;5092356;28;20539;-68
2024/01/20 07:20:00;;;;;;;4.20;3.80;;;7.10;66.80;;;;;;5075331;28;20032;-68
2024/01/20 07:22:26;;;;;;;4.68;3.47;;;7.20;66.90;;;;;;5074646;28;20044;-68
2024/01/20 07:24:52;;;;;;;4.90;3.75;;;7.20;66.80;;;;;;5092170;28;20027;-70
2024/01/20 07:27:18;;;;;;;4.30;3.53;;;7.20;66.70;;;;;;5074943;28;20103;-68
2024/01/20 07:29:43;;;;;;;5.20;3.97;;;7.30;66.70;;;;;;5074744;28;20118;-69
2024/01/20 07:32:11;;;;;;;4.53;3.60;;;7.30;66.70;;;;;;5108697;28;20024;-68
2024/01/20 07:34:37;;;;;;;5.10;3.63;;;7.30;66.60;;;;;;5109459;28;20077;-68
2024/01/20 07:37:03;;;;;;;5.28;3.90;;;7.30;66.50;;;;;;5092436;28;20115;-69
2024/01/20 07:39:28;;;;;;;4.30;3.55;;;7.30;66.50;;;;;;5093025;28;20526;-70
2024/01/20 07:41:54;;;;;;;3.50;3.20;;;7.30;66.50;;;;;;5074977;28;20071;-68
2024/01/20 07:44:20;;;;;;;4.57;3.70;;;7.30;66.40;;;;;;5074481;28;20165;-69
2024/01/20 07:46:45;;;;;;;3.95;3.40;;;7.30;66.40;;;;;;5073096;28;20109;-69
2024/01/20 07:49:11;;;;;;;4.57;3.72;;;7.30;66.40;;;;;;5076772;28;20024;-69
2024/01/20 07:51:37;;;;;;;3.95;3.20;;;7.30;66.40;;;;;;5076938;28;20023;-71
2024/01/20 07:54:02;;;;;;;4.35;3.60;;;7.30;66.40;;;;;;5095209;28;20366;-71
2024/01/20 07:56:40;;;;;;;4.80;3.80;;;7.30;66.40;;;;;;5107155;28;20116;-74
2024/01/20 07:59:06;;;;;;;4.68;3.95;;;7.30;66.40;;;;;;5078546;28;20105;-69
2024/01/20 08:01:32;;;;;;;4.93;3.70;;;7.40;66.40;;;;;;5077760;28;20044;-69
2024/01/20 08:03:58;;;;;;;4.90;3.80;;;7.40;66.40;;;;;;5095323;28;20501;-68
2024/01/20 08:06:23;;;;;;;4.70;3.63;;;7.40;66.30;;;;;;5097718;28;20024;-68
2024/01/20 08:08:49;;;;;;;4.03;3.45;;;7.40;66.30;;;;;;5094070;28;20044;-71
2024/01/20 08:11:15;;;;;;;4.88;3.97;;;7.40;66.30;;;;;;5076342;28;20109;-70
2024/01/20 08:13:43;;;;;;;5.07;4.03;;;7.30;66.20;;;;;;5109043;28;20032;-71
2024/01/20 08:16:09;;;;;;;4.10;3.60;;;7.40;66.20;;;;;;5077406;28;20063;-68
2024/01/20 08:18:34;;;;;;;3.88;3.40;;;7.40;66.20;;;;;;5077754;28;20078;-68
2024/01/20 08:21:07;;;;;;;4.57;3.95;;;7.30;66.20;;;;;;5096218;28;20036;-68
2024/01/20 08:23:33;;;;;;;5.65;4.07;;;7.40;66.20;;;;;;5058127;28;20052;-69
2024/01/20 08:25:59;;;;;;;5.07;3.90;;;7.40;66.10;;;;;;5075733;28;20025;-69
2024/01/20 08:28:25;;;;;;;4.93;4.15;;;7.30;66.10;;;;;;5075627;28;20119;-69
2024/01/20 08:30:51;;;;;;;4.72;3.90;;;7.30;66.10;;;;;;5057795;28;20111;-70
2024/01/20 08:33:17;;;;;;;5.22;4.03;;;7.30;66.10;;;;;;5075685;28;20028;-69
2024/01/20 08:35:43;;;;;;;4.43;3.95;;;7.30;66.10;;;;;;5075610;28;20379;-68
2024/01/20 08:38:08;;;;;;;5.43;3.85;;;7.30;66.10;;;;;;5057816;28;20378;-68
2024/01/20 08:40:34;;;;;;;5.13;4.13;;;7.40;66.10;;;;;;5057743;28;20111;-68
2024/01/20 08:43:00;;;;;;;5.38;3.72;;;7.30;66.00;;;;;;5075159;28;20028;-68
2024/01/20 08:45:25;;;;;;;5.15;3.80;;;7.30;66.00;;;;;;5075933;28;20115;-69
2024/01/20 08:47:51;;;;;;;5.75;4.00;;;7.30;66.00;;;;;;5075300;28;20016;-68
2024/01/20 08:50:17;;;;;;;5.50;4.30;;;7.30;65.90;;;;;;5075527;28;20046;-69
2024/01/20 08:52:42;;;;;;;4.45;3.72;;;7.30;65.90;;;;;;5057598;28;20558;-69
2024/01/20 08:55:08;;;;;;;5.45;4.00;;;7.30;65.90;;;;;;5075045;28;20099;-68
2024/01/20 08:57:35;;;;;;;5.00;3.70;;;7.30;65.90;;;;;;5075202;28;20029;-68
2024/01/20 09:00:03;;;;;;;4.85;3.92;;;7.30;65.90;;;;;;5056492;28;20462;-69
2024/01/20 09:02:28;;;;;;;4.90;3.97;;;7.20;65.90;;;;;;5075205;28;20043;-70
2024/01/20 09:04:54;;;;;;;5.22;4.07;;;7.30;66.00;;;;;;5075466;28;20371;-68
2024/01/20 09:07:20;;;;;;;4.72;3.90;;;7.20;65.90;;;;;;5057203;28;20078;-68
2024/01/20 09:09:47;;;;;;;5.38;4.13;;;7.20;65.90;;;;;;5057007;28;20025;-69
2024/01/20 09:12:13;;;;;;;5.65;4.18;;;7.20;65.90;;;;;;5074625;28;20032;-68
2024/01/20 09:14:39;;;;;;;6.40;4.28;;;7.20;65.90;;;;;;5074882;28;20047;-69
2024/01/20 09:17:04;;;;;;;4.53;3.72;;;7.20;65.90;;;;;;5056859;28;20463;-69
2024/01/20 09:19:30;;;;;;;5.38;4.18;;;7.20;66.00;;;;;;5074610;28;20024;-69
2024/01/20 09:21:56;;;;;;;4.75;3.90;;;7.20;65.90;;;;;;5056580;28;20032;-69
2024/01/20 09:24:22;;;;;;;4.82;3.80;;;7.20;65.90;;;;;;5074770;28;20126;-67
2024/01/20 09:26:47;;;;;;;4.70;3.72;;;7.20;65.90;;;;;;5056659;28;20505;-69
2024/01/20 09:29:13;;;;;;;5.03;3.92;;;7.20;65.90;;;;;;5075249;28;20036;-67
2024/01/20 09:31:39;;;;;;;4.63;3.83;;;7.20;65.90;;;;;;5074742;28;20426;-69
2024/01/20 09:34:04;;;;;;;5.45;4.13;;;7.20;65.80;;;;;;5074417;28;20020;-68
2024/01/20 09:36:30;;;;;;;5.10;4.07;;;7.20;65.80;;;;;;5056384;28;20028;-69
2024/01/20 09:38:56;;;;;;;5.25;3.88;;;7.20;65.80;;;;;;5056447;28;20459;-69
2024/01/20 09:41:22;;;;;;;5.63;4.30;;;7.20;65.80;;;;;;5074232;28;20082;-68
2024/01/20 09:43:49;;;;;;;3.80;3.40;;;7.20;65.80;;;;;;5056408;28;20119;-70
2024/01/20 09:46:15;;;;;;;5.75;4.00;;;7.10;65.70;;;;;;5073942;28;20429;-69
2024/01/20 09:48:43;;;;;;;5.10;3.88;;;7.20;65.70;;;;;;5074680;28;20032;-69
2024/01/20 09:51:09;;;;;;;6.10;4.32;;;7.20;65.70;;;;;;5074218;28;20033;-69
2024/01/20 09:53:35;;;;;;;5.07;3.97;;;7.20;65.70;;;;;;5056091;28;20075;-69
2024/01/20 09:56:02;;;;;;;6.18;4.22;;;7.20;65.70;;;;;;5055863;28;20021;-68
2024/01/20 09:58:30;;;;;;;5.25;4.25;;;7.20;65.70;;;;;;5056434;28;20053;-69
2024/01/20 10:00:57;;;;;;;4.80;3.85;;;7.20;65.70;;;;;;5055769;28;20036;-68
2024/01/20 10:03:25;;;;;;;5.32;4.10;;;7.20;65.70;;;;;;5074032;28;20028;-68
2024/01/20 10:05:52;;;;;;;5.00;4.15;;;7.30;65.70;;;;;;5055927;28;20028;-68
2024/01/20 10:08:18;;;;;;;5.07;3.80;;;7.30;65.70;;;;;;5055835;28;20462;-69
2024/01/20 10:10:43;;;;;;;5.30;3.75;;;7.30;65.60;;;;;;5055863;28;20043;-67
2024/01/20 10:13:09;;;;;;;5.22;3.97;;;7.40;65.50;;;;;;5056004;28;20348;-69
2024/01/20 10:15:35;;;;;;;5.55;4.30;;;7.50;65.50;;;;;;5055767;28;20027;-69
2024/01/20 10:18:10;;;;;;;4.75;3.85;;;7.60;65.40;;;;;;5073760;28;20029;-69
2024/01/20 10:21:01;;;;;;;5.57;4.45;;;7.60;65.30;;;;;;5073490;28;20107;-68
2024/01/20 10:23:27;;;;;;;5.05;4.03;;;7.70;65.10;;;;;;5056201;28;20024;-72
2024/01/20 10:26:07;;;;;;;5.00;3.85;;;7.70;65.10;;;;;;5074303;28;20520;-69
2024/01/20 10:28:33;;;;;;;4.95;3.80;;;7.80;65.00;;;;;;5055794;28;20033;-68
2024/01/20 10:31:07;;;;;;;5.35;3.92;;;7.80;64.90;;;;;;5073826;28;20040;-69
2024/01/20 10:33:32;;;;;;;4.55;3.80;;;7.80;64.70;;;;;;5073772;28;20036;-69
2024/01/20 10:35:59;;;;;;;5.03;3.72;;;7.80;64.70;;;;;;5073524;28;20021;-69
2024/01/20 10:38:28;;;;;;;5.30;3.78;;;7.80;64.60;;;;;;5055982;28;20371;-69
2024/01/20 10:40:57;;;;;;;4.25;3.55;;;7.80;64.60;;;;;;5055659;28;20043;-69
2024/01/20 10:43:28;;;;;;;4.60;3.47;;;7.80;64.60;;;;;;5073446;28;20103;-69
2024/01/20 10:46:08;;;;;;;4.25;3.40;;;7.80;64.60;;;;;;5073218;28;20086;-71
2024/01/20 10:48:40;;;;;;;4.38;3.30;;;7.80;64.60;;;;;;5055697;28;20021;-67
2024/01/20 10:51:11;;;;;;;3.97;3.20;;;7.80;64.50;;;;;;5055511;28;20029;-70
2024/01/20 10:53:37;;;;;;;4.53;3.55;;;7.80;64.50;;;;;;5055395;28;20534;-68
2024/01/20 10:56:07;;;;;;;4.72;3.65;;;7.80;64.50;;;;;;5055427;28;20075;-69
2024/01/20 10:58:38;;;;;;;4.68;3.33;;;7.80;64.50;;;;;;5055178;28;20049;-68
2024/01/20 11:01:05;;;;;;;4.75;3.20;;;7.80;64.50;;;;;;5073221;28;20062;-68
2024/01/20 11:03:32;;;;;;;3.47;2.95;;;7.70;64.50;;;;;;5073506;28;20082;-68
2024/01/20 11:05:57;;;;;;;4.72;3.50;;;7.70;64.40;;;;;;5055208;28;20025;-69
2024/01/20 11:08:25;;;;;;;3.45;3.10;;;7.70;64.50;;;;;;5055275;28;20066;-70
2024/01/20 11:10:52;;;;;;;4.65;3.53;;;7.80;64.50;;;;;;5073027;28;20037;-68
2024/01/20 11:13:18;;;;;;;5.40;4.03;;;7.70;64.50;;;;;;5055241;28;20028;-69
2024/01/20 11:15:51;;;;;;;4.40;3.35;;;7.70;64.40;;;;;;5073400;28;20478;-70
2024/01/20 11:18:19;;;;;;;3.85;3.28;;;7.70;64.40;;;;;;5055348;28;20029;-68
2024/01/20 11:20:57;;;;;;;4.18;3.17;;;7.70;64.40;;;;;;5073321;28;20359;-67
2024/01/20 11:23:24;;;;;;;4.65;3.30;;;7.70;64.30;;;;;;5058184;28;20117;-68
2024/01/20 11:25:50;;;;;;;4.15;3.42;;;7.70;64.30;;;;;;5059406;28;20032;-68
2024/01/20 11:28:31;;;;;;;3.83;3.33;;;7.70;64.30;;;;;;5059230;28;20486;-68
2024/01/20 11:30:57;;;;;;;4.68;3.58;;;7.70;64.20;;;;;;5058731;28;20047;-68
2024/01/20 11:33:26;;;;;;;3.45;3.00;;;7.70;64.20;;;;;;5058872;28;20363;-69
2024/01/20 11:35:53;;;;;;;3.80;3.13;;;7.70;64.20;;;;;;5076776;28;20447;-69
2024/01/20 11:38:19;;;;;;;4.40;3.50;;;7.70;64.20;;;;;;5058686;28;20024;-68
2024/01/20 11:40:55;;;;;;;4.68;3.17;;;7.70;64.20;;;;;;5076590;28;20169;-69
2024/01/20 11:43:21;;;;;;;3.42;3.05;;;7.70;64.20;;;;;;5058994;28;20029;-69
2024/01/20 11:45:47;;;;;;;3.80;3.00;;;7.70;64.20;;;;;;5058361;28;20074;-68
2024/01/20 11:48:15;;;;;;;4.05;3.38;;;7.80;64.20;;;;;;5076588;28;20033;-69
2024/01/20 11:50:40;;;;;;;3.42;3.05;;;7.80;64.20;;;;;;5058358;28;20482;-69
2024/01/20 11:53:06;;;;;;;3.70;2.90;;;7.80;64.10;;;;;;5076732;28;20052;-70
2024/01/20 11:55:32;;;;;;;3.78;3.10;;;7.70;64.00;;;;;;5058711;28;20034;-68
2024/01/20 11:57:57;;;;;;;3.60;3.25;;;7.70;64.00;;;;;;5058471;28;20536;-69
2024/01/20 12:00:23;;;;;;;3.70;3.20;;;7.70;64.00;;;;;;5058183;28;20143;-69
2024/01/20 12:02:51;;;;;;;3.10;2.80;;;7.70;64.00;;;;;;5076356;28;20036;-68
2024/01/20 12:05:17;;;;;;;3.30;2.88;;;7.70;64.00;;;;;;5076250;28;20052;-70
2024/01/20 12:07:43;;;;;;;3.53;3.22;;;7.70;64.00;;;;;;5076531;28;20427;-73
2024/01/20 12:10:09;;;;;;;3.50;3.13;;;7.70;64.00;;;;;;5058169;28;20069;-68
2024/01/20 12:12:35;;;;;;;3.92;3.22;;;7.70;64.00;;;;;;5076429;28;20024;-70
2024/01/20 12:15:05;;;;;;;3.35;3.05;;;7.70;63.90;;;;;;5058181;28;20024;-70
2024/01/20 12:17:33;;;;;;;3.72;3.10;;;7.70;63.90;;;;;;5057958;28;20020;-69
2024/01/20 12:19:59;;;;;;;3.10;2.80;;;7.70;63.90;;;;;;5057894;28;20032;-69
2024/01/20 12:22:24;;;;;;;3.13;2.80;;;7.60;63.90;;;;;;5058438;28;20029;-69
2024/01/20 12:24:52;;;;;;;4.68;3.22;;;7.60;63.90;;;;;;5075620;28;20036;-70
2024/01/20 12:27:18;;;;;;;4.18;3.10;;;7.60;63.90;;;;;;5057768;28;20027;-69
2024/01/20 12:29:44;;;;;;;3.35;2.90;;;7.60;63.90;;;;;;5057921;28;20031;-69
2024/01/20 12:32:10;;;;;;;3.47;3.03;;;7.60;63.90;;;;;;5075563;28;20115;-69
2024/01/20 12:34:36;;;;;;;3.70;3.28;;;7.60;63.90;;;;;;5057073;28;20108;-69
2024/01/20 12:37:02;;;;;;;3.40;3.08;;;7.50;63.80;;;;;;5057696;28;20112;-70
2024/01/20 12:39:28;;;;;;;3.90;3.15;;;7.50;63.90;;;;;;5075682;28;20024;-68
2024/01/20 12:41:54;;;;;;;3.25;2.78;;;7.50;63.90;;;;;;5057723;28;20397;-70
2024/01/20 12:44:20;;;;;;;3.35;2.90;;;7.50;63.90;;;;;;5075367;28;20028;-69
2024/01/20 12:46:47;;;;;;;3.95;3.20;;;7.50;63.90;;;;;;5057193;28;20056;-69
2024/01/20 12:49:13;;;;;;;3.20;2.90;;;7.50;63.90;;;;;;5057541;28;20033;-69
2024/01/20 12:51:40;;;;;;;4.18;3.20;;;7.50;63.90;;;;;;5075296;28;20478;-69
2024/01/20 12:54:06;;;;;;;4.13;3.35;;;7.50;63.90;;;;;;5075616;28;20032;-69